Lakewood, New Mexico
Current Conditions -  °F | °C
As of 9:53 AM on Wednesday 26 Nov 2014 (Local Time) from KCNM Reporting Station
Clear Clear  
Wind Chill: 56°   Ceiling: Unl
Heat Index: 56°   Visibility: 10mi
Dew Point: 16°   Wind: 7mph
Humidity: 21%   Direction: 100°E
Pressure: 30.28"   Gusts: NA
Location:  32.63°N, 104.38°W
Report Text: KCNM 261653Z AUTO 10006KT 10SM CLR 13/M09 A3028 RMK AO2 SLP229 T01331089
Loading
Personal Weather Stations






























Interactive Weather Map New forecast layout! Learn more

10-Day Weather Forecast

Advertisements
Track Severe Weather on mobile